DLH256 ENZV-EDDH
Flight info
| Callsign | DLH256 |
|---|---|
| Flight time | 1h 12m |
| Altitude | 35000 |
| Route | ENZV/28 BIVK1F BIVKI DCT ELGIK DCT ATTUS DCT GIKOG DCT OSTOR T904 RIBSO RIBS7A EDDH |
| Aircraft | A21N/M-L/C |
Departure
| Time | 2026-04-30 17:59 |
|---|---|
| Airport | Stavanger Airport, Sola (ENZV) |
Arrival
| Time | 2026-04-30 19:11 |
|---|---|
| Airport | Hamburg Helmut Schmidt Airport (EDDH) |
| Time | Latitude | Longitude | Altitude | Speed | Heading |
|---|---|---|---|---|---|
| 2026-04-30 17:46 | 58.88158 | 5.63072 | 28 ft | 0 kts | 315° |
| 2026-04-30 17:50 | 58.88129 | 5.63128 | 28 ft | 2 kts | 315° |
| 2026-04-30 17:51 | 58.88088 | 5.63147 | 28 ft | 2 kts | 22° |
| 2026-04-30 17:52 | 58.88071 | 5.63125 | 27 ft | 0 kts | 44° |
| 2026-04-30 17:54 | 58.88022 | 5.63279 | 29 ft | 10 kts | 132° |
| 2026-04-30 17:55 | 58.87746 | 5.63375 | 26 ft | 13 kts | 115° |
| 2026-04-30 17:56 | 58.87613 | 5.64387 | 33 ft | 7 kts | 122° |
| 2026-04-30 17:57 | 58.87591 | 5.64321 | 33 ft | 4 kts | 296° |
| 2026-04-30 17:58 | 58.87729 | 5.63453 | 27 ft | 96 kts | 287° |
| 2026-04-30 17:59 | 58.88888 | 5.55804 | 1829 ft | 156 kts | 287° |
| 2026-04-30 18:00 | 58.89045 | 5.46439 | 3028 ft | 222 kts | 220° |
| 2026-04-30 18:00 | 58.84536 | 5.48698 | 4544 ft | 264 kts | 142° |
| 2026-04-30 18:01 | 58.81604 | 5.52973 | 6039 ft | 270 kts | 149° |
| 2026-04-30 18:02 | 58.77035 | 5.59506 | 8325 ft | 278 kts | 144° |
| 2026-04-30 18:02 | 58.72474 | 5.66530 | 10292 ft | 291 kts | 145° |
| 2026-04-30 18:03 | 58.67634 | 5.74017 | 12114 ft | 304 kts | 144° |
| 2026-04-30 18:04 | 58.62534 | 5.81906 | 13975 ft | 313 kts | 144° |
| 2026-04-30 18:05 | 58.54994 | 5.93516 | 15940 ft | 342 kts | 144° |
| 2026-04-30 18:06 | 58.47493 | 6.05014 | 17968 ft | 353 kts | 144° |
| 2026-04-30 18:07 | 58.39728 | 6.16837 | 19806 ft | 365 kts | 144° |
| 2026-04-30 18:08 | 58.33499 | 6.25242 | 20390 ft | 365 kts | 155° |
| 2026-04-30 18:09 | 58.24171 | 6.32481 | 20400 ft | 364 kts | 160° |
| 2026-04-30 18:10 | 58.14793 | 6.39508 | 20403 ft | 364 kts | 160° |
| 2026-04-30 18:11 | 58.05313 | 6.46591 | 20410 ft | 366 kts | 160° |
| 2026-04-30 18:11 | 57.98110 | 6.51944 | 21445 ft | 378 kts | 160° |
| 2026-04-30 18:12 | 57.90552 | 6.57537 | 22520 ft | 391 kts | 159° |
| 2026-04-30 18:13 | 57.85043 | 6.61602 | 23080 ft | 403 kts | 159° |
| 2026-04-30 18:13 | 57.77602 | 6.67070 | 24414 ft | 402 kts | 160° |
| 2026-04-30 18:14 | 57.71239 | 6.71727 | 25384 ft | 405 kts | 160° |
| 2026-04-30 18:15 | 57.62855 | 6.77835 | 26418 ft | 413 kts | 159° |
| 2026-04-30 18:15 | 57.54707 | 6.83745 | 27347 ft | 420 kts | 159° |
| 2026-04-30 18:16 | 57.49201 | 6.87721 | 27957 ft | 424 kts | 159° |
| 2026-04-30 18:16 | 57.43728 | 6.91972 | 28545 ft | 428 kts | 157° |
| 2026-04-30 18:17 | 57.41024 | 6.94119 | 28825 ft | 430 kts | 157° |
| 2026-04-30 18:17 | 57.38270 | 6.96302 | 29108 ft | 432 kts | 157° |
| 2026-04-30 18:17 | 57.32702 | 7.00687 | 29642 ft | 436 kts | 157° |
| 2026-04-30 18:18 | 57.29806 | 7.02957 | 29913 ft | 439 kts | 157° |
| 2026-04-30 18:18 | 57.26798 | 7.05310 | 30191 ft | 441 kts | 157° |
| 2026-04-30 18:18 | 57.23773 | 7.07671 | 30468 ft | 443 kts | 157° |
| 2026-04-30 18:18 | 57.20821 | 7.09970 | 30735 ft | 445 kts | 156° |
| 2026-04-30 18:19 | 57.17862 | 7.12271 | 30997 ft | 446 kts | 156° |
| 2026-04-30 18:19 | 57.15014 | 7.14481 | 31242 ft | 448 kts | 157° |
| 2026-04-30 18:19 | 57.12167 | 7.16687 | 31468 ft | 450 kts | 156° |
| 2026-04-30 18:19 | 57.09072 | 7.19081 | 31706 ft | 452 kts | 156° |
| 2026-04-30 18:20 | 57.05966 | 7.21478 | 31975 ft | 453 kts | 157° |
| 2026-04-30 18:20 | 57.02843 | 7.23885 | 32313 ft | 452 kts | 157° |
| 2026-04-30 18:20 | 56.99814 | 7.26215 | 32651 ft | 452 kts | 157° |
| 2026-04-30 18:20 | 56.96824 | 7.28511 | 32969 ft | 451 kts | 157° |
| 2026-04-30 18:21 | 56.93853 | 7.30788 | 33276 ft | 451 kts | 157° |
| 2026-04-30 18:21 | 56.90917 | 7.33033 | 33579 ft | 450 kts | 157° |
| 2026-04-30 18:21 | 56.88021 | 7.35243 | 33845 ft | 450 kts | 157° |
| 2026-04-30 18:21 | 56.85135 | 7.37442 | 34083 ft | 451 kts | 156° |
| 2026-04-30 18:22 | 56.82243 | 7.39642 | 34304 ft | 452 kts | 156° |
| 2026-04-30 18:22 | 56.76448 | 7.44043 | 34729 ft | 453 kts | 156° |
| 2026-04-30 18:22 | 56.73550 | 7.46238 | 34945 ft | 454 kts | 156° |
| 2026-04-30 18:23 | 56.70673 | 7.48413 | 35153 ft | 455 kts | 156° |
| 2026-04-30 18:23 | 56.67757 | 7.50615 | 35340 ft | 456 kts | 156° |
| 2026-04-30 18:23 | 56.61691 | 7.55182 | 35421 ft | 458 kts | 156° |
| 2026-04-30 18:24 | 56.52340 | 7.62189 | 35428 ft | 458 kts | 156° |
| 2026-04-30 18:25 | 56.46207 | 7.66765 | 35427 ft | 458 kts | 157° |
| 2026-04-30 18:25 | 56.37195 | 7.73461 | 35427 ft | 459 kts | 157° |
| 2026-04-30 18:26 | 56.28323 | 7.80019 | 35427 ft | 459 kts | 157° |
| 2026-04-30 18:27 | 56.19449 | 7.86547 | 35427 ft | 464 kts | 157° |
| 2026-04-30 18:28 | 56.10497 | 7.93096 | 35424 ft | 465 kts | 157° |
| 2026-04-30 18:28 | 56.01107 | 7.99934 | 35426 ft | 465 kts | 157° |
| 2026-04-30 18:29 | 55.88561 | 8.09016 | 35427 ft | 465 kts | 157° |
| 2026-04-30 18:30 | 55.76371 | 8.17774 | 35425 ft | 465 kts | 157° |
| 2026-04-30 18:31 | 55.67253 | 8.24289 | 35424 ft | 466 kts | 157° |
| 2026-04-30 18:32 | 55.61181 | 8.28608 | 35015 ft | 468 kts | 157° |
| 2026-04-30 18:32 | 55.57966 | 8.30890 | 34410 ft | 468 kts | 157° |
| 2026-04-30 18:32 | 55.51553 | 8.35428 | 33236 ft | 471 kts | 157° |
| 2026-04-30 18:33 | 55.48516 | 8.37571 | 32685 ft | 472 kts | 157° |
| 2026-04-30 18:33 | 55.42446 | 8.41843 | 31580 ft | 476 kts | 157° |
| 2026-04-30 18:33 | 55.39324 | 8.44035 | 31020 ft | 478 kts | 156° |
| 2026-04-30 18:34 | 55.36025 | 8.46349 | 30423 ft | 480 kts | 156° |
| 2026-04-30 18:34 | 55.29799 | 8.50705 | 29303 ft | 470 kts | 156° |
| 2026-04-30 18:34 | 55.26613 | 8.52928 | 28737 ft | 465 kts | 156° |
| 2026-04-30 18:35 | 55.23401 | 8.55165 | 28155 ft | 460 kts | 156° |
| 2026-04-30 18:35 | 55.20354 | 8.57283 | 27602 ft | 456 kts | 156° |
| 2026-04-30 18:35 | 55.17366 | 8.59356 | 27056 ft | 452 kts | 156° |
| 2026-04-30 18:36 | 55.11586 | 8.63360 | 25989 ft | 444 kts | 156° |
| 2026-04-30 18:36 | 55.08733 | 8.65331 | 25458 ft | 440 kts | 157° |
| 2026-04-30 18:36 | 55.03101 | 8.69215 | 24403 ft | 432 kts | 157° |
| 2026-04-30 18:37 | 55.00236 | 8.71187 | 23860 ft | 429 kts | 157° |
| 2026-04-30 18:37 | 54.97517 | 8.73057 | 23352 ft | 425 kts | 157° |
| 2026-04-30 18:37 | 54.94782 | 8.74933 | 22833 ft | 422 kts | 157° |
| 2026-04-30 18:37 | 54.91972 | 8.76855 | 22295 ft | 418 kts | 157° |
| 2026-04-30 18:38 | 54.89285 | 8.78688 | 21786 ft | 414 kts | 157° |
| 2026-04-30 18:38 | 54.86614 | 8.80487 | 21277 ft | 411 kts | 157° |
| 2026-04-30 18:38 | 54.83958 | 8.82266 | 20769 ft | 407 kts | 156° |
| 2026-04-30 18:38 | 54.81306 | 8.84043 | 20257 ft | 404 kts | 156° |
| 2026-04-30 18:39 | 54.78707 | 8.85785 | 19754 ft | 400 kts | 156° |
| 2026-04-30 18:39 | 54.76083 | 8.87544 | 19238 ft | 397 kts | 156° |
| 2026-04-30 18:39 | 54.73517 | 8.89261 | 18746 ft | 393 kts | 156° |
| 2026-04-30 18:39 | 54.70972 | 8.90960 | 18241 ft | 390 kts | 156° |
| 2026-04-30 18:40 | 54.68456 | 8.92638 | 17734 ft | 387 kts | 156° |
| 2026-04-30 18:40 | 54.65939 | 8.94217 | 17227 ft | 385 kts | 159° |
| 2026-04-30 18:40 | 54.63357 | 8.95387 | 16726 ft | 384 kts | 165° |
| 2026-04-30 18:40 | 54.60729 | 8.96108 | 16226 ft | 383 kts | 171° |
| 2026-04-30 18:41 | 54.58123 | 8.96472 | 15735 ft | 381 kts | 173° |
| 2026-04-30 18:41 | 54.55496 | 8.96780 | 15236 ft | 378 kts | 173° |
| 2026-04-30 18:41 | 54.52887 | 8.97078 | 14739 ft | 375 kts | 173° |
| 2026-04-30 18:41 | 54.50301 | 8.97374 | 14226 ft | 368 kts | 173° |
| 2026-04-30 18:42 | 54.47778 | 8.97663 | 13725 ft | 358 kts | 173° |
| 2026-04-30 18:42 | 54.42970 | 8.98223 | 12836 ft | 331 kts | 173° |
| 2026-04-30 18:42 | 54.40726 | 8.98483 | 12474 ft | 317 kts | 172° |
| 2026-04-30 18:45 | 54.21923 | 8.96047 | 11421 ft | 272 kts | 213° |
| 2026-04-30 18:45 | 54.20403 | 8.94114 | 11418 ft | 272 kts | 214° |
| 2026-04-30 18:45 | 54.18902 | 8.92189 | 11417 ft | 272 kts | 214° |
| 2026-04-30 18:46 | 54.17383 | 8.90239 | 11414 ft | 273 kts | 214° |
| 2026-04-30 18:46 | 54.15868 | 8.88295 | 11412 ft | 273 kts | 214° |
| 2026-04-30 18:46 | 54.14350 | 8.86351 | 11413 ft | 273 kts | 214° |
| 2026-04-30 18:46 | 54.12851 | 8.84435 | 11415 ft | 273 kts | 214° |
| 2026-04-30 18:47 | 54.11330 | 8.82489 | 11417 ft | 273 kts | 214° |
| 2026-04-30 18:47 | 54.09805 | 8.80540 | 11418 ft | 273 kts | 214° |
| 2026-04-30 18:47 | 54.08273 | 8.78575 | 11406 ft | 273 kts | 214° |
| 2026-04-30 18:47 | 54.06639 | 8.76931 | 11378 ft | 266 kts | 191° |
| 2026-04-30 18:48 | 54.04866 | 8.76965 | 11385 ft | 250 kts | 153° |
| 2026-04-30 18:48 | 54.03515 | 8.78598 | 11405 ft | 241 kts | 126° |
| 2026-04-30 18:48 | 54.02613 | 8.80981 | 11422 ft | 241 kts | 118° |
| 2026-04-30 18:48 | 54.01740 | 8.83432 | 11425 ft | 242 kts | 119° |
| 2026-04-30 18:49 | 54.00835 | 8.85848 | 11434 ft | 243 kts | 120° |
| 2026-04-30 18:49 | 53.99907 | 8.88251 | 11438 ft | 243 kts | 121° |
| 2026-04-30 18:49 | 53.98965 | 8.90643 | 11416 ft | 244 kts | 121° |
| 2026-04-30 18:49 | 53.98021 | 8.93005 | 11418 ft | 244 kts | 121° |
| 2026-04-30 18:50 | 53.97063 | 8.95384 | 11420 ft | 244 kts | 121° |
| 2026-04-30 18:50 | 53.96103 | 8.97757 | 11426 ft | 244 kts | 121° |
| 2026-04-30 18:50 | 53.95137 | 9.00137 | 11437 ft | 244 kts | 121° |
| 2026-04-30 18:50 | 53.94174 | 9.02503 | 11420 ft | 244 kts | 121° |
| 2026-04-30 18:51 | 53.93211 | 9.04866 | 11420 ft | 243 kts | 121° |
| 2026-04-30 18:51 | 53.92262 | 9.07194 | 11416 ft | 243 kts | 121° |
| 2026-04-30 18:51 | 53.91298 | 9.09554 | 11410 ft | 243 kts | 121° |
| 2026-04-30 18:51 | 53.90330 | 9.11920 | 11421 ft | 243 kts | 121° |
| 2026-04-30 18:52 | 53.89365 | 9.14279 | 11405 ft | 243 kts | 121° |
| 2026-04-30 18:52 | 53.88399 | 9.16636 | 11419 ft | 244 kts | 121° |
| 2026-04-30 18:52 | 53.87433 | 9.18992 | 11427 ft | 244 kts | 121° |
| 2026-04-30 18:52 | 53.86463 | 9.21353 | 11418 ft | 244 kts | 121° |
| 2026-04-30 18:53 | 53.85507 | 9.23679 | 11413 ft | 244 kts | 121° |
| 2026-04-30 18:53 | 53.84538 | 9.26031 | 11413 ft | 243 kts | 121° |
| 2026-04-30 18:53 | 53.83570 | 9.28382 | 11417 ft | 244 kts | 121° |
| 2026-04-30 18:53 | 53.82601 | 9.30732 | 11410 ft | 244 kts | 121° |
| 2026-04-30 18:54 | 53.81626 | 9.33098 | 11042 ft | 248 kts | 121° |
| 2026-04-30 18:54 | 53.80645 | 9.35511 | 10534 ft | 250 kts | 120° |
| 2026-04-30 18:54 | 53.79688 | 9.37924 | 10072 ft | 245 kts | 120° |
| 2026-04-30 18:54 | 53.78769 | 9.40251 | 9626 ft | 239 kts | 120° |
| 2026-04-30 18:55 | 53.77855 | 9.42563 | 9179 ft | 236 kts | 120° |
| 2026-04-30 18:55 | 53.75473 | 9.46241 | 8250 ft | 241 kts | 156° |
| 2026-04-30 18:55 | 53.73814 | 9.46690 | 7812 ft | 246 kts | 179° |
| 2026-04-30 18:56 | 53.70599 | 9.44646 | 6924 ft | 251 kts | 198° |
| 2026-04-30 18:56 | 53.68957 | 9.44176 | 6404 ft | 240 kts | 167° |
| 2026-04-30 18:56 | 53.67420 | 9.45060 | 5905 ft | 230 kts | 148° |
| 2026-04-30 18:57 | 53.64700 | 9.47766 | 4913 ft | 226 kts | 144° |
| 2026-04-30 18:57 | 53.63393 | 9.49156 | 4411 ft | 226 kts | 144° |
| 2026-04-30 18:57 | 53.62080 | 9.50564 | 4042 ft | 222 kts | 144° |
| 2026-04-30 18:58 | 53.59467 | 9.53387 | 3997 ft | 224 kts | 144° |
| 2026-04-30 18:58 | 53.58156 | 9.54808 | 4016 ft | 224 kts | 144° |
| 2026-04-30 18:58 | 53.56810 | 9.56150 | 3992 ft | 227 kts | 155° |
| 2026-04-30 18:59 | 53.53803 | 9.55242 | 3976 ft | 237 kts | 219° |
| 2026-04-30 19:00 | 53.50526 | 9.48903 | 3999 ft | 242 kts | 229° |
| 2026-04-30 19:00 | 53.49468 | 9.46706 | 4006 ft | 242 kts | 229° |
| 2026-04-30 19:00 | 53.47349 | 9.42296 | 4021 ft | 242 kts | 229° |
| 2026-04-30 19:01 | 53.45240 | 9.37904 | 4011 ft | 241 kts | 228° |
| 2026-04-30 19:01 | 53.44001 | 9.36083 | 3984 ft | 235 kts | 201° |
| 2026-04-30 19:02 | 53.41057 | 9.36553 | 3996 ft | 218 kts | 136° |
| 2026-04-30 19:02 | 53.40127 | 9.41105 | 4011 ft | 215 kts | 87° |
| 2026-04-30 19:03 | 53.40380 | 9.46080 | 3998 ft | 216 kts | 84° |
| 2026-04-30 19:03 | 53.40691 | 9.51087 | 3996 ft | 215 kts | 83° |
| 2026-04-30 19:04 | 53.41708 | 9.55795 | 3996 ft | 217 kts | 58° |
| 2026-04-30 19:04 | 53.43643 | 9.59684 | 3990 ft | 219 kts | 49° |
| 2026-04-30 19:05 | 53.45674 | 9.63498 | 3993 ft | 219 kts | 51° |
| 2026-04-30 19:05 | 53.47622 | 9.67395 | 3999 ft | 219 kts | 52° |
| 2026-04-30 19:06 | 53.49515 | 9.71276 | 3781 ft | 205 kts | 52° |
| 2026-04-30 19:06 | 53.50396 | 9.73086 | 3540 ft | 194 kts | 52° |
| 2026-04-30 19:06 | 53.51982 | 9.76344 | 3128 ft | 177 kts | 52° |
| 2026-04-30 19:07 | 53.53540 | 9.79532 | 2616 ft | 176 kts | 52° |
| 2026-04-30 19:07 | 53.54318 | 9.81119 | 2371 ft | 176 kts | 52° |
| 2026-04-30 19:08 | 53.55862 | 9.84263 | 1898 ft | 175 kts | 52° |
| 2026-04-30 19:08 | 53.57408 | 9.87405 | 1445 ft | 171 kts | 52° |
| 2026-04-30 19:08 | 53.58131 | 9.88870 | 1216 ft | 155 kts | 52° |
| 2026-04-30 19:09 | 53.59391 | 9.91429 | 826 ft | 137 kts | 51° |
| 2026-04-30 19:09 | 53.60002 | 9.92670 | 659 ft | 137 kts | 51° |
| 2026-04-30 19:09 | 53.60613 | 9.93910 | 482 ft | 137 kts | 51° |
| 2026-04-30 19:10 | 53.61824 | 9.96378 | 108 ft | 137 kts | 51° |
| 2026-04-30 19:10 | 53.62951 | 9.98653 | 38 ft | 92 kts | 51° |
| 2026-04-30 19:11 | 53.63244 | 9.99245 | 34 ft | 50 kts | 51° |
| 2026-04-30 19:11 | 53.63528 | 9.99851 | 36 ft | 10 kts | 84° |
| 2026-04-30 19:11 | 53.63502 | 9.99952 | 35 ft | 8 kts | 125° |
| 2026-04-30 19:12 | 53.63480 | 10.00004 | 35 ft | 0 kts | 126° |
| 2026-04-30 19:12 | 53.63481 | 10.00002 | 35 ft | 0 kts | 126° |
| 2026-04-30 19:12 | 53.63483 | 9.99996 | 35 ft | 0 kts | 126° |
| 2026-04-30 19:13 | 53.63477 | 10.00011 | 35 ft | 3 kts | 126° |
| 2026-04-30 19:13 | 53.63427 | 10.00128 | 39 ft | 7 kts | 124° |
| 2026-04-30 19:13 | 53.63397 | 10.00201 | 40 ft | 6 kts | 133° |
| 2026-04-30 19:14 | 53.63358 | 10.00238 | 40 ft | 4 kts | 160° |
| 2026-04-30 19:14 | 53.63345 | 10.00243 | 40 ft | 2 kts | 175° |
| 2026-04-30 19:14 | 53.63343 | 10.00244 | 40 ft | 0 kts | 175° |
| 2026-04-30 19:14 | 53.63320 | 10.00245 | 40 ft | 7 kts | 180° |
| 2026-04-30 19:15 | 53.63297 | 10.00244 | 40 ft | 2 kts | 180° |
| 2026-04-30 19:15 | 53.63186 | 10.00250 | 39 ft | 11 kts | 176° |
| 2026-04-30 19:15 | 53.63119 | 10.00267 | 39 ft | 5 kts | 141° |
| 2026-04-30 19:16 | 53.63110 | 10.00307 | 41 ft | 2 kts | 93° |
| 2026-04-30 19:16 | 53.63110 | 10.00333 | 41 ft | 2 kts | 87° |
| 2026-04-30 19:16 | 53.63112 | 10.00368 | 43 ft | 0 kts | 86° |